Aérodrome :







RETROUVEZ-NOUS SUR...

 
LOGIN :

S'inscrire | Disclaimer

   EN    FR    IT 

 









Légende :    VFR   VFR Marginal   IFR   IFR Intensif   IFR Très Intensif
Visi : 
Plafond : 
>= 8 km
>= 3000ft
5 à 8 km
1000 à 3000 ft
1500m à 5 km
500 à 1000 ft
800 à 1500m
200 à 500 ft
< 800m
< 200 ft
Symboles :   Orages  Brouillard  Fortes neiges  Fortes précipitations  Vent > 20 kt






- Altitude de l'aérodrome : 100 ft
- Code IATA : PSM


KPSM - Portsmouth International at Pease

DERNIER METAR :
  • 141256Z 33003KT 10SM SCT120 BKN250 M06/M11 A3047 RMK AO2A SLP322 T10651107

METARs EXPIRÉS :
  • 141156Z 00000KT 10SM SCT130 BKN250 M09/M11 A3047 RMK AO2A SLP323 T10891113 11082 21094
  • 141056Z 32003KT 10SM FEW040 SCT150 BKN220 M09/M11 A3046 RMK AO2A SLP319 T10871114

TAF KPSM
Valide du 14 à 12h jusqu'au 15 à 12h UTC


141120Z 1412/1512 20004KT P6SM OVC100
FM150000 17006KT P6SM OVC050
FM150300 21006KT P6SM OVC100
FM150600 24005KT P6SM BKN250



MET'MAP, la Météo Aéronautique d'un coup d'oeil ! - Copyright ORBIFLY Décembre 2007 - Disclaimer

ORBIFLY MET'MAP TEAM :

Programmation & Développement : Alexandra Zaïnal
Conception & Développement : Baudouin d'Aumeries
Co-Programmation & Développement : Marc-Olivier Méhu
Soutien technique & logistique : Manuel Goepfert

Contact : metmap@orbifly.com




SOURCES & CREDITS :

   NOAA